Time;durP1;ratioP1;P1;durP2;ratioP2;P2;SDS_P1;SDS_P2;PMS_P1;PMS_P2;Temp;Humidity;BMP_temperature;BMP_pressure;BME280_temperature;BME280_humidity;BME280_pressure;Samples;Min_cycle;Max_cycle;Signal;HPM_P1;HPM_P2
2022/05/25 00:01:04;;;;;;;22.48;17.98;;;;;;;16.00;100.00;99164.69;5033408;28;20513;-80
2022/05/25 00:03:32;;;;;;;24.60;17.57;;;;;;;15.87;100.00;99146.41;5015533;28;20022;-80
2022/05/25 00:05:58;;;;;;;18.50;15.30;;;;;;;15.93;100.00;99169.59;5033485;28;20417;-80
2022/05/25 00:08:24;;;;;;;17.05;14.50;;;;;;;15.87;100.00;99166.56;5015065;28;20033;-81
2022/05/25 00:10:49;;;;;;;16.10;14.30;;;;;;;15.84;100.00;99174.69;5033208;28;20032;-80
2022/05/25 00:13:15;;;;;;;18.25;15.10;;;;;;;15.76;100.00;99167.41;5032846;28;20044;-80
2022/05/25 00:15:40;;;;;;;19.48;15.27;;;;;;;15.78;100.00;99172.53;5015249;28;20033;-81
2022/05/25 00:18:06;;;;;;;16.85;14.45;;;;;;;15.73;100.00;99166.78;5014967;28;20033;-80
2022/05/25 00:20:31;;;;;;;15.20;12.40;;;;;;;15.81;100.00;99172.31;5032696;28;20425;-80
2022/05/25 00:22:57;;;;;;;15.68;12.57;;;;;;;15.82;100.00;99169.56;5014940;28;20076;-80
2022/05/25 00:25:30;;;;;;;14.05;12.27;;;;;;;15.81;100.00;99180.19;5032577;28;20467;-81
2022/05/25 00:27:57;;;;;;;14.27;11.80;;;;;;;15.81;100.00;99185.44;5015018;28;20044;-80
2022/05/25 00:30:23;;;;;;;14.85;13.02;;;;;;;15.77;100.00;99184.81;5014715;28;20033;-80
2022/05/25 00:32:48;;;;;;;13.82;11.50;;;;;;;15.80;100.00;99189.84;5014767;28;20026;-80
2022/05/25 00:35:17;;;;;;;9.30;8.27;;;;;;;15.78;100.00;99194.38;5014472;28;20032;-80
2022/05/25 00:37:43;;;;;;;8.23;6.63;;;;;;;15.78;100.00;99198.78;5032457;28;20510;-80
2022/05/25 00:40:12;;;;;;;8.38;6.47;;;;;;;15.67;100.00;99186.44;5014550;28;20032;-80
2022/05/25 00:42:38;;;;;;;6.40;5.72;;;;;;;15.66;100.00;99190.88;5014769;28;20061;-81
2022/05/25 00:45:06;;;;;;;7.22;6.30;;;;;;;15.68;100.00;99199.47;5014226;28;20107;-81
2022/05/25 00:47:32;;;;;;;6.88;6.07;;;;;;;15.65;100.00;99198.88;5014409;28;20057;-80
2022/05/25 00:49:58;;;;;;;7.63;6.20;;;;;;;15.63;100.00;99205.97;5032267;28;20075;-81
2022/05/25 00:52:26;;;;;;;7.75;6.72;;;;;;;15.62;100.00;99204.31;5014428;28;20136;-79
2022/05/25 00:55:00;;;;;;;6.85;6.13;;;;;;;15.57;100.00;99203.81;5032358;28;20040;-79
2022/05/25 00:57:27;;;;;;;7.07;6.13;;;;;;;15.57;100.00;99198.56;5014278;28;20116;-80
2022/05/25 00:59:58;;;;;;;7.03;6.10;;;;;;;15.60;100.00;99211.47;5031837;28;20040;-80
2022/05/25 01:02:27;;;;;;;6.40;5.75;;;;;;;15.48;100.00;99206.16;5014080;28;20049;-79
2022/05/25 01:04:52;;;;;;;6.35;5.75;;;;;;;15.54;100.00;99210.13;5032231;28;20056;-79
2022/05/25 01:07:40;;;;;;;6.80;5.78;;;;;;;15.52;100.00;99209.41;5014010;28;20029;-79
2022/05/25 01:10:20;;;;;;;7.43;5.95;;;;;;;15.61;100.00;99226.25;5031695;28;20049;-80
2022/05/25 01:13:22;;;;;;;7.28;6.57;;;;;;;15.54;100.00;99222.41;5031886;28;20032;-79
2022/05/25 01:16:01;;;;;;;7.70;6.15;;;;;;;15.58;100.00;99239.59;5014283;28;20036;-79
2022/05/25 01:18:45;;;;;;;6.93;6.32;;;;;;;15.59;100.00;99251.78;5032046;28;20032;-79
2022/05/25 01:21:22;;;;;;;7.93;7.13;;;;;;;15.57;100.00;99244.03;5013908;28;20029;-79
2022/05/25 01:23:53;;;;;;;7.80;7.00;;;;;;;15.54;100.00;99235.53;5032052;28;20036;-80
2022/05/25 01:26:52;;;;;;;8.15;7.43;;;;;;;15.55;100.00;99245.06;5013829;28;20052;-79
2022/05/25 01:29:45;;;;;;;9.05;7.15;;;;;;;15.43;100.00;99224.06;5031445;28;20487;-79
2022/05/25 01:32:31;;;;;;;7.63;6.93;;;;;;;15.54;100.00;99243.41;5031751;28;20140;-80
2022/05/25 01:35:12;;;;;;;8.43;7.60;;;;;;;15.53;100.00;99233.88;5031620;28;20037;-79
2022/05/25 01:37:40;;;;;;;9.73;8.32;;;;;;;15.53;100.00;99232.06;5031637;28;20041;-79
2022/05/25 01:40:11;;;;;;;10.88;9.07;;;;;;;15.49;100.00;99220.13;5031838;28;20101;-80
2022/05/25 01:42:49;;;;;;;8.68;7.88;;;;;;;15.51;100.00;99223.50;5014696;28;20030;-80
2022/05/25 01:45:16;;;;;;;8.98;7.78;;;;;;;15.47;100.00;99225.50;5013568;28;20486;-79
2022/05/25 01:47:46;;;;;;;8.57;7.68;;;;;;;15.42;100.00;99225.00;5013779;28;20022;-79
2022/05/25 01:50:38;;;;;;;7.85;6.93;;;;;;;15.45;100.00;99235.25;5013801;28;20586;-80
2022/05/25 01:53:07;;;;;;;8.90;7.72;;;;;;;15.44;100.00;99238.00;5031823;28;20108;-79
2022/05/25 01:55:39;;;;;;;7.75;7.05;;;;;;;15.38;100.00;99226.19;5013844;28;20509;-79
2022/05/25 01:58:11;;;;;;;8.25;7.45;;;;;;;15.45;100.00;99223.94;5013893;28;20038;-79
2022/05/25 02:00:43;;;;;;;7.50;6.82;;;;;;;15.40;100.00;99229.50;5031455;28;20025;-79
2022/05/25 02:06:13;;;;;;;7.82;6.72;;;;;;;15.40;100.00;99233.94;5031902;28;20041;-79
2022/05/25 02:08:57;;;;;;;6.45;5.85;;;;;;;15.34;100.00;99223.91;5031739;28;20443;-79
2022/05/25 02:11:33;;;;;;;6.47;5.45;;;;;;;15.32;100.00;99224.00;5008985;28;20060;-79
2022/05/25 02:14:09;;;;;;;6.90;6.07;;;;;;;15.37;100.00;99237.59;4996631;28;20475;-79
2022/05/25 02:16:50;;;;;;;6.40;5.80;;;;;;;15.34;100.00;99235.22;5012905;28;20399;-79
2022/05/25 02:19:37;;;;;;;7.82;5.53;;;;;;;15.32;100.00;99233.66;5012560;28;20034;-79
2022/05/25 02:22:41;;;;;;;7.80;5.25;;;;;;;15.30;100.00;99230.31;5012956;28;20042;-79
2022/05/25 02:25:27;;;;;;;5.78;5.28;;;;;;;15.30;100.00;99241.66;4996340;28;20034;-79
2022/05/25 02:28:09;;;;;;;6.88;5.22;;;;;;;15.29;100.00;99239.09;4996182;28;20030;-79
2022/05/25 02:30:38;;;;;;;6.05;5.45;;;;;;;15.30;100.00;99246.88;4996141;28;20088;-79
2022/05/25 02:33:17;;;;;;;6.40;5.80;;;;;;;15.27;100.00;99247.09;5012762;28;20437;-79
2022/05/25 02:35:46;;;;;;;6.43;5.82;;;;;;;15.21;100.00;99243.16;5012771;28;20041;-79
2022/05/25 02:38:12;;;;;;;7.35;6.68;;;;;;;15.21;100.00;99250.16;5012617;28;20050;-79
2022/05/25 02:40:40;;;;;;;7.95;7.25;;;;;;;15.23;100.00;99251.72;5015129;28;20088;-80
2022/05/25 02:43:06;;;;;;;11.45;10.32;;;;;;;15.25;100.00;99256.03;5016779;28;20494;-81
2022/05/25 02:45:33;;;;;;;10.25;9.25;;;;;;;15.20;100.00;99251.09;5016482;28;20046;-80
2022/05/25 02:47:59;;;;;;;9.73;8.82;;;;;;;15.19;100.00;99258.16;5034521;28;20053;-80
2022/05/25 02:50:24;;;;;;;10.05;9.05;;;;;;;15.18;100.00;99259.09;5016470;28;20494;-80
2022/05/25 02:52:50;;;;;;;9.40;8.57;;;;;;;15.14;100.00;99254.19;5016731;28;20049;-80
2022/05/25 02:55:16;;;;;;;8.63;7.88;;;;;;;15.19;100.00;99266.00;5016488;28;20107;-80
2022/05/25 02:57:42;;;;;;;8.60;7.68;;;;;;;15.15;100.00;99271.59;5016701;28;20364;-80
2022/05/25 03:00:09;;;;;;;6.88;6.20;;;;;;;15.18;100.00;99274.00;5016641;28;20083;-80
2022/05/25 03:02:35;;;;;;;8.50;6.75;;;;;;;15.16;100.00;99281.13;5016262;28;20033;-80
2022/05/25 03:05:02;;;;;;;7.32;6.20;;;;;;;15.12;100.00;99272.63;5034192;28;20077;-80
2022/05/25 03:07:27;;;;;;;8.35;7.55;;;;;;;15.13;100.00;99268.25;5033800;28;20021;-80
2022/05/25 03:09:52;;;;;;;9.35;8.57;;;;;;;15.15;100.00;99285.53;5032959;28;20064;-80
2022/05/25 03:12:18;;;;;;;9.63;8.77;;;;;;;15.15;100.00;99282.09;5033983;28;20060;-80
2022/05/25 03:14:43;;;;;;;10.27;9.38;;;;;;;15.15;100.00;99284.72;5016231;28;20072;-80
2022/05/25 03:17:14;;;;;;;11.40;10.30;;;;;;;15.14;100.00;99289.13;5011447;28;20034;-80
2022/05/25 03:19:48;;;;;;;9.77;8.90;;;;;;;15.15;100.00;99290.78;4995118;28;20038;-80
2022/05/25 03:22:14;;;;;;;11.40;9.43;;;;;;;15.13;100.00;99290.06;5011565;28;20052;-80
2022/05/25 03:24:39;;;;;;;11.10;10.00;;;;;;;15.15;100.00;99297.81;5011669;28;20030;-80
2022/05/25 03:27:05;;;;;;;10.30;9.27;;;;;;;15.15;100.00;99305.69;5011498;28;20109;-81
2022/05/25 03:29:31;;;;;;;12.68;11.48;;;;;;;15.15;100.00;99303.06;5011363;28;20069;-80
2022/05/25 03:31:57;;;;;;;13.20;11.90;;;;;;;15.16;100.00;99304.75;5011685;28;20037;-80
2022/05/25 03:34:23;;;;;;;13.63;12.23;;;;;;;15.14;100.00;99299.63;5011247;28;20037;-80
2022/05/25 03:36:48;;;;;;;12.77;11.23;;;;;;;15.11;100.00;99306.84;5011459;28;20049;-80
2022/05/25 03:39:14;;;;;;;13.40;12.10;;;;;;;15.12;100.00;99300.66;5011679;28;20038;-80
2022/05/25 03:41:40;;;;;;;12.57;11.27;;;;;;;15.13;100.00;99313.69;5011339;28;20466;-80
2022/05/25 03:44:06;;;;;;;12.35;11.15;;;;;;;15.10;100.00;99299.94;4994861;28;20518;-80
2022/05/25 03:46:32;;;;;;;12.07;10.98;;;;;;;15.11;100.00;99293.75;5010727;28;20050;-80
2022/05/25 03:48:58;;;;;;;12.82;11.55;;;;;;;15.13;100.00;99297.94;5011228;28;20033;-80
2022/05/25 03:51:23;;;;;;;13.05;11.65;;;;;;;15.18;100.00;99308.94;4994657;28;20413;-80
2022/05/25 03:53:49;;;;;;;12.73;11.43;;;;;;;15.14;100.00;99306.66;4998845;28;20494;-80
2022/05/25 03:56:16;;;;;;;12.25;10.98;;;;;;;15.14;100.00;99304.03;5015541;28;20025;-80
2022/05/25 03:58:43;;;;;;;12.30;11.13;;;;;;;15.19;100.00;99307.16;5015491;28;20202;-80
2022/05/25 04:01:08;;;;;;;10.60;9.60;;;;;;;15.18;100.00;99313.34;5033201;28;20087;-80
2022/05/25 04:03:34;;;;;;;10.65;9.73;;;;;;;15.19;100.00;99318.47;5032839;28;20029;-80
2022/05/25 04:06:00;;;;;;;10.35;9.35;;;;;;;15.20;100.00;99321.94;5015528;28;20478;-80
2022/05/25 04:08:25;;;;;;;9.32;8.43;;;;;;;15.20;100.00;99320.16;5015172;28;20063;-80
2022/05/25 04:10:50;;;;;;;10.82;9.32;;;;;;;15.20;100.00;99316.69;5015333;28;20044;-80
2022/05/25 04:13:16;;;;;;;9.60;8.80;;;;;;;15.21;100.00;99327.09;5033072;28;20029;-80
2022/05/25 04:15:42;;;;;;;9.65;8.85;;;;;;;15.23;100.00;99324.34;5015190;28;20033;-81
2022/05/25 04:18:07;;;;;;;10.40;9.40;;;;;;;15.21;100.00;99321.84;5015054;28;20029;-80
2022/05/25 04:20:33;;;;;;;11.45;10.25;;;;;;;15.21;100.00;99319.22;5033020;28;20066;-80
2022/05/25 04:22:59;;;;;;;10.55;9.65;;;;;;;15.22;100.00;99331.41;5015140;28;20021;-81
2022/05/25 04:25:25;;;;;;;11.25;10.15;;;;;;;15.19;100.00;99317.66;5014795;28;20029;-81
2022/05/25 04:27:53;;;;;;;10.52;9.63;;;;;;;15.23;100.00;99326.97;5014967;28;20032;-80
2022/05/25 04:30:22;;;;;;;12.30;10.93;;;;;;;15.28;100.00;99331.91;5032418;28;20052;-80
2022/05/25 04:32:47;;;;;;;12.00;10.93;;;;;;;15.27;100.00;99320.56;5014810;28;20071;-81
2022/05/25 04:35:15;;;;;;;10.98;9.98;;;;;;;15.25;100.00;99311.13;5014491;28;20060;-80
2022/05/25 04:37:49;;;;;;;11.20;10.10;;;;;;;15.35;100.00;99320.88;5014658;28;20564;-81
2022/05/25 04:40:18;;;;;;;11.77;10.57;;;;;;;15.44;100.00;99328.06;5032543;28;20581;-80
2022/05/25 04:42:43;;;;;;;12.18;11.07;;;;;;;15.46;100.00;99320.94;5014625;28;20021;-80
2022/05/25 04:45:10;;;;;;;12.02;10.82;;;;;;;15.49;100.00;99325.13;5014411;28;20045;-81
2022/05/25 04:47:37;;;;;;;13.45;11.93;;;;;;;15.45;100.00;99327.13;5014463;28;20032;-79
2022/05/25 04:50:07;;;;;;;12.23;11.13;;;;;;;15.46;100.00;99327.94;5032433;28;20104;-79
2022/05/25 04:52:37;;;;;;;12.35;11.13;;;;;;;15.40;100.00;99328.41;5031996;28;20482;-79
2022/05/25 04:55:03;;;;;;;11.93;10.85;;;;;;;15.45;100.00;99334.16;5032231;28;20045;-79
2022/05/25 04:57:29;;;;;;;12.02;10.52;;;;;;;15.38;100.00;99323.28;5031994;28;20034;-78
2022/05/25 04:59:58;;;;;;;12.30;11.20;;;;;;;15.37;100.00;99326.00;5032414;28;20092;-78
2022/05/25 05:02:25;;;;;;;12.07;10.88;;;;;;;15.36;100.00;99333.03;5032158;28;20128;-78
2022/05/25 05:04:51;;;;;;;10.55;9.55;;;;;;;15.38;100.00;99335.53;5032274;28;20081;-81
2022/05/25 05:07:16;;;;;;;11.82;10.68;;;;;;;15.39;100.00;99345.09;5032076;28;20056;-80
2022/05/25 05:09:44;;;;;;;11.02;9.82;;;;;;;15.45;100.00;99353.34;5014012;28;20034;-80
2022/05/25 05:12:11;;;;;;;11.32;10.18;;;;;;;15.39;100.00;99342.47;5014240;28;20026;-80
2022/05/25 05:14:39;;;;;;;11.45;10.05;;;;;;;15.47;100.00;99359.34;5031592;28;20112;-80
2022/05/25 05:17:07;;;;;;;11.40;10.35;;;;;;;15.48;100.00;99361.03;5014240;28;20031;-81
2022/05/25 05:19:33;;;;;;;11.48;10.40;;;;;;;15.50;100.00;99362.69;5013962;28;20037;-81
2022/05/25 05:21:59;;;;;;;12.25;11.10;;;;;;;15.48;100.00;99373.31;5031955;28;20104;-80
2022/05/25 05:24:25;;;;;;;12.88;11.55;;;;;;;15.44;100.00;99372.69;5013908;28;20116;-80
2022/05/25 05:26:51;;;;;;;13.80;12.55;;;;;;;15.36;100.00;99367.13;5031877;28;20060;-81
2022/05/25 05:29:16;;;;;;;11.85;10.65;;;;;;;15.43;100.00;99386.75;5031807;28;20454;-80
2022/05/25 05:31:41;;;;;;;14.18;12.30;;;;;;;15.42;100.00;99382.47;5031674;28;20084;-81
2022/05/25 05:34:07;;;;;;;13.32;12.07;;;;;;;15.44;100.00;99385.81;5032136;28;20464;-80
2022/05/25 05:36:42;;;;;;;13.55;12.25;;;;;;;15.42;100.00;99386.84;5013770;28;20030;-80
2022/05/25 05:39:10;;;;;;;15.60;14.00;;;;;;;15.43;100.00;99385.94;5031684;28;20437;-80
2022/05/25 05:41:47;;;;;;;14.93;13.50;;;;;;;15.42;100.00;99385.09;5013566;28;20022;-80
2022/05/25 05:44:16;;;;;;;13.85;12.45;;;;;;;15.45;100.00;99389.28;5031864;28;20478;-80
2022/05/25 05:46:42;;;;;;;13.02;11.82;;;;;;;15.41;100.00;99393.88;5032044;28;20104;-80
2022/05/25 05:49:09;;;;;;;16.13;14.57;;;;;;;15.39;100.00;99380.06;5017993;28;20068;-80
2022/05/25 05:51:36;;;;;;;13.70;12.50;;;;;;;15.38;100.00;99383.63;5035377;28;20034;-80
2022/05/25 05:54:05;;;;;;;14.93;13.52;;;;;;;15.39;100.00;99393.19;5017648;28;20120;-85
2022/05/25 05:56:34;;;;;;;14.50;13.00;;;;;;;15.35;100.00;99383.84;5034159;28;20246;-85
2022/05/25 05:59:01;;;;;;;14.87;13.47;;;;;;;15.35;100.00;99385.63;5017814;28;20060;-85
2022/05/25 06:01:27;;;;;;;12.40;11.30;;;;;;;15.35;100.00;99393.50;5017450;28;20268;-80
2022/05/25 06:03:52;;;;;;;11.50;10.50;;;;;;;15.35;100.00;99391.72;5017633;28;20037;-80
2022/05/25 06:06:18;;;;;;;11.77;10.20;;;;;;;15.36;100.00;99390.75;5017549;28;20021;-80
2022/05/25 06:08:46;;;;;;;11.13;10.10;;;;;;;15.37;100.00;99396.84;5017100;28;20029;-80
2022/05/25 06:11:13;;;;;;;10.93;9.88;;;;;;;15.40;100.00;99402.72;5017608;28;20022;-80
2022/05/25 06:13:39;;;;;;;11.32;10.32;;;;;;;15.40;100.00;99399.25;5035146;28;20025;-80
2022/05/25 06:21:33;;;;;;;10.40;9.50;;;;;;;15.42;100.00;99395.59;5035158;28;20099;-80
2022/05/25 06:23:58;;;;;;;9.70;8.80;;;;;;;15.50;100.00;99413.41;5017690;28;20430;-80
2022/05/25 06:26:27;;;;;;;8.50;7.70;;;;;;;15.47;100.00;99409.22;5017225;28;20017;-80
2022/05/25 06:28:53;;;;;;;8.10;7.38;;;;;;;15.53;100.00;99421.06;5017221;28;20038;-80
2022/05/25 06:31:19;;;;;;;8.50;7.65;;;;;;;15.54;100.00;99421.91;5034886;28;20108;-80
2022/05/25 06:33:45;;;;;;;8.55;7.65;;;;;;;15.51;100.00;99409.00;5016784;28;20033;-80
2022/05/25 06:36:19;;;;;;;9.10;7.25;;;;;;;15.52;100.00;99418.56;5034954;28;20121;-80
2022/05/25 06:38:45;;;;;;;9.30;7.82;;;;;;;15.67;100.00;99439.34;4976122;28;20101;-80
2022/05/25 06:41:11;;;;;;;9.02;8.10;;;;;;;15.71;100.00;99445.19;4976538;28;20070;-81
2022/05/25 06:43:36;;;;;;;8.30;7.38;;;;;;;15.74;100.00;99437.13;4953671;29;20472;-81
2022/05/25 06:46:02;;;;;;;7.55;6.85;;;;;;;15.77;100.00;99446.56;4953672;29;20051;-80
2022/05/25 06:48:28;;;;;;;10.30;7.03;;;;;;;15.76;100.00;99450.13;4953766;29;20249;-81
2022/05/25 06:50:53;;;;;;;8.15;7.35;;;;;;;15.78;100.00;99451.69;4954015;29;20106;-80
2022/05/25 06:53:19;;;;;;;8.80;7.22;;;;;;;15.74;100.00;99450.25;4953931;29;20118;-81
2022/05/25 06:55:46;;;;;;;8.02;7.25;;;;;;;15.71;100.00;99453.91;4953787;29;20031;-81
2022/05/25 06:58:11;;;;;;;8.20;7.25;;;;;;;15.65;100.00;99456.16;4953244;28;20102;-80
2022/05/25 07:00:37;;;;;;;7.85;7.03;;;;;;;15.54;100.00;99448.16;4953441;29;20035;-81
2022/05/25 07:03:04;;;;;;;8.38;7.47;;;;;;;15.58;100.00;99460.13;4953794;29;20047;-81
2022/05/25 07:05:29;;;;;;;8.00;6.88;;;;;;;15.53;100.00;99451.72;4953532;29;20043;-81
2022/05/25 07:07:54;;;;;;;8.38;6.78;;;;;;;15.56;100.00;99465.47;4953518;29;20166;-81
2022/05/25 07:10:20;;;;;;;6.90;6.30;;;;;;;15.54;100.00;99466.53;4956769;28;20455;-81
2022/05/25 07:12:46;;;;;;;7.30;6.53;;;;;;;15.60;100.00;99476.59;4972674;28;20038;-81
2022/05/25 07:15:12;;;;;;;7.13;6.05;;;;;;;15.65;100.00;99482.41;5006321;28;20041;-81
2022/05/25 07:17:37;;;;;;;6.88;6.28;;;;;;;15.72;100.00;99478.41;5033997;28;20596;-81
2022/05/25 07:20:06;;;;;;;7.65;6.47;;;;;;;15.80;100.00;99480.47;5016315;28;20029;-81
2022/05/25 07:22:32;;;;;;;7.38;6.68;;;;;;;15.82;100.00;99486.47;5016056;28;20025;-81
2022/05/25 07:24:57;;;;;;;6.60;6.00;;;;;;;15.83;100.00;99493.38;5016258;28;20463;-81
2022/05/25 07:27:22;;;;;;;7.88;6.10;;;;;;;15.78;100.00;99487.63;5016010;28;20446;-82
2022/05/25 07:29:48;;;;;;;6.68;5.97;;;;;;;15.71;100.00;99484.59;5015750;28;20129;-81
2022/05/25 07:32:14;;;;;;;7.10;5.97;;;;;;;15.69;100.00;99487.31;5016307;28;20422;-81
2022/05/25 07:34:47;;;;;;;7.68;6.72;;;;;;;15.67;100.00;99494.50;5015902;28;20025;-81
2022/05/25 07:37:21;;;;;;;6.47;5.88;;;;;;;15.63;100.00;99486.88;5033775;28;20053;-81
2022/05/25 07:39:58;;;;;;;8.30;7.47;;;;;;;15.58;100.00;99489.00;5033469;28;20378;-81
2022/05/25 07:42:25;;;;;;;6.90;6.30;;;;;;;15.57;100.00;99503.91;5015683;28;20022;-81
2022/05/25 07:45:00;;;;;;;7.82;6.07;;;;;;;15.57;100.00;99503.91;5033312;28;20037;-81
2022/05/25 07:47:28;;;;;;;7.57;5.93;;;;;;;15.56;100.00;99502.22;5015664;28;20041;-81
2022/05/25 07:49:54;;;;;;;8.98;8.18;;;;;;;15.51;100.00;99491.22;5015461;28;20425;-81
2022/05/25 07:52:22;;;;;;;8.48;5.80;;;;;;;15.39;100.00;99489.44;5033495;28;20029;-81
2022/05/25 07:54:48;;;;;;;6.53;5.43;;;;;;;15.33;100.00;99495.94;5015292;28;20060;-82
2022/05/25 07:57:13;;;;;;;7.35;5.90;;;;;;;15.22;100.00;99482.72;5033284;28;20479;-81
2022/05/25 07:59:40;;;;;;;7.00;5.20;;;;;;;15.25;100.00;99495.59;5015317;28;20053;-81
2022/05/25 08:07:44;;;;;;;7.95;5.82;;;;;;;15.30;100.00;99479.59;5032960;28;20450;-81
2022/05/25 08:10:14;;;;;;;6.63;5.75;;;;;;;15.21;100.00;99468.78;5032685;28;20025;-81
2022/05/25 08:12:42;;;;;;;6.43;5.75;;;;;;;15.29;100.00;99481.34;5015209;28;20068;-81
2022/05/25 08:15:09;;;;;;;6.95;6.18;;;;;;;15.30;100.00;99477.78;5015181;28;20025;-81
2022/05/25 08:17:36;;;;;;;6.60;5.90;;;;;;;15.35;100.00;99480.09;5014889;28;20025;-81
2022/05/25 08:20:02;;;;;;;7.68;6.22;;;;;;;15.42;100.00;99487.44;5032813;28;20394;-82
2022/05/25 08:22:28;;;;;;;7.35;6.30;;;;;;;15.51;100.00;99482.50;5015152;28;20032;-81
2022/05/25 08:24:53;;;;;;;7.25;6.57;;;;;;;15.54;100.00;99485.72;5032996;28;20033;-80
2022/05/25 08:27:19;;;;;;;7.75;5.80;;;;;;;15.69;100.00;99497.00;5014892;28;20028;-80
2022/05/25 08:29:44;;;;;;;7.40;6.60;;;;;;;15.80;100.00;99497.09;5014704;28;20068;-80
2022/05/25 08:32:10;;;;;;;8.52;7.60;;;;;;;15.90;100.00;99497.28;5014911;28;20474;-80
2022/05/25 08:34:36;;;;;;;8.30;7.53;;;;;;;15.95;100.00;99495.97;5032344;28;20478;-80
2022/05/25 08:37:03;;;;;;;7.50;6.80;;;;;;;16.00;100.00;99492.19;5032741;28;20120;-80
2022/05/25 08:39:29;;;;;;;9.15;7.45;;;;;;;15.94;100.00;99489.06;5014907;28;20041;-80
2022/05/25 08:41:58;;;;;;;9.73;6.70;;;;;;;15.97;100.00;99493.28;5014580;28;20029;-80
2022/05/25 08:44:24;;;;;;;6.72;6.10;;;;;;;16.06;100.00;99482.09;5014847;28;20034;-80
2022/05/25 08:46:55;;;;;;;8.38;6.35;;;;;;;16.21;100.00;99488.84;5014104;28;20408;-80
2022/05/25 08:49:23;;;;;;;6.47;5.80;;;;;;;16.53;100.00;99501.44;5014870;28;20390;-80
2022/05/25 08:51:52;;;;;;;7.22;5.90;;;;;;;16.81;100.00;99516.06;5009886;28;20038;-80
2022/05/25 08:54:19;;;;;;;6.53;5.90;;;;;;;17.05;100.00;99517.78;5010197;28;20037;-80
2022/05/25 08:56:53;;;;;;;7.72;5.95;;;;;;;17.25;100.00;99530.28;5009669;28;20033;-80
2022/05/25 08:59:26;;;;;;;7.30;5.97;;;;;;;17.42;100.00;99516.66;5010053;28;20061;-80
2022/05/25 09:02:22;;;;;;;7.78;6.22;;;;;;;17.62;100.00;99519.56;5009787;28;20042;-80
2022/05/25 09:04:58;;;;;;;8.95;6.78;;;;;;;17.75;100.00;99524.75;5009876;28;20084;-80
2022/05/25 09:07:34;;;;;;;7.25;5.88;;;;;;;17.87;100.00;99527.25;5009760;28;20040;-80
2022/05/25 09:10:00;;;;;;;6.70;6.03;;;;;;;17.74;100.00;99523.00;5009560;28;20065;-80
2022/05/25 09:12:37;;;;;;;7.55;6.75;;;;;;;17.68;100.00;99529.59;5009078;28;20132;-80
2022/05/25 09:15:29;;;;;;;6.90;6.20;;;;;;;17.48;100.00;99522.41;5009501;28;20033;-80
2022/05/25 09:18:01;;;;;;;7.43;6.72;;;;;;;17.25;100.00;99538.19;5009686;28;20046;-80
2022/05/25 09:22:53;;;;;;;7.68;6.72;;;;;;;16.92;100.00;99539.75;5019904;28;20041;-81
2022/05/25 09:25:21;;;;;;;9.07;6.80;;;;;;;16.85;100.00;99553.47;5031602;28;20030;-80
2022/05/25 09:28:07;;;;;;;6.93;6.25;;;;;;;16.81;100.00;99554.66;5013923;28;20088;-80
2022/05/25 09:30:36;;;;;;;10.50;6.35;;;;;;;16.76;100.00;99535.75;5031827;28;20373;-80
2022/05/25 09:33:10;;;;;;;7.30;6.25;;;;;;;16.86;100.00;99547.28;5014437;28;20030;-80
2022/05/25 09:35:41;;;;;;;6.47;5.88;;;;;;;16.99;100.00;99549.84;5031939;28;20037;-80
2022/05/25 09:38:27;;;;;;;7.53;6.38;;;;;;;17.12;100.00;99567.22;5032071;28;20087;-80
2022/05/25 09:40:52;;;;;;;8.02;6.18;;;;;;;16.99;100.00;99565.63;5031815;28;20363;-80
2022/05/25 09:43:21;;;;;;;7.10;6.13;;;;;;;16.84;100.00;99562.31;5013801;28;20029;-80
2022/05/25 09:45:51;;;;;;;6.80;6.15;;;;;;;16.67;100.00;99553.00;5031537;28;20045;-80
2022/05/25 09:48:24;;;;;;;7.28;6.22;;;;;;;16.69;100.00;99559.03;5013767;28;20053;-80
2022/05/25 09:51:13;;;;;;;6.47;5.85;;;;;;;16.64;100.00;99559.34;5013551;28;20041;-80
2022/05/25 09:53:48;;;;;;;6.85;6.15;;;;;;;16.69;100.00;99551.97;5031390;28;20398;-80
2022/05/25 09:56:23;;;;;;;6.47;5.88;;;;;;;16.81;100.00;99559.91;5032038;28;20033;-80
2022/05/25 09:58:56;;;;;;;6.00;5.40;;;;;;;16.79;100.00;99544.25;5013761;28;20253;-80
2022/05/25 10:01:39;;;;;;;6.57;5.93;;;;;;;17.01;100.00;99558.44;5031447;28;20041;-80
2022/05/25 10:04:06;;;;;;;8.00;6.45;;;;;;;17.02;100.00;99554.84;5013721;28;20072;-80
2022/05/25 10:06:44;;;;;;;7.05;6.40;;;;;;;17.09;100.00;99551.66;5031525;28;20048;-80
2022/05/25 10:09:29;;;;;;;8.70;7.22;;;;;;;17.08;100.00;99551.78;5031877;28;20033;-80
2022/05/25 10:11:58;;;;;;;7.30;6.60;;;;;;;17.03;100.00;99535.50;5031288;28;20075;-80
2022/05/25 10:14:31;;;;;;;9.23;6.53;;;;;;;17.03;100.00;99538.13;5013630;28;20038;-80
2022/05/25 10:17:08;;;;;;;8.25;6.95;;;;;;;17.00;100.00;99533.94;5031619;28;20064;-80
2022/05/25 10:19:43;;;;;;;8.10;7.30;;;;;;;16.98;100.00;99522.69;5013749;28;20029;-80
2022/05/25 10:22:35;;;;;;;10.05;8.13;;;;;;;16.98;100.00;99513.94;5013619;28;20117;-80
2022/05/25 10:25:07;;;;;;;8.15;6.25;;;;;;;17.11;100.00;99517.34;5013355;28;20441;-80
2022/05/25 10:27:42;;;;;;;9.18;7.10;;;;;;;17.29;100.00;99534.38;5031093;28;20492;-80
2022/05/25 10:39:29;;;;;;;9.68;8.77;;;;;;;18.01;100.00;99536.69;4954345;29;20444;-80
2022/05/25 10:42:12;;;;;;;8.52;7.72;;;;;;;18.31;100.00;99543.13;4937813;29;20183;-80
2022/05/25 10:44:49;;;;;;;7.53;6.82;;;;;;;18.59;100.00;99539.09;4953975;29;20031;-80
2022/05/25 10:47:27;;;;;;;7.25;6.45;;;;;;;18.78;100.00;99557.75;4953951;29;20048;-80
2022/05/25 10:49:53;;;;;;;6.80;6.20;;;;;;;18.87;100.00;99550.88;4953760;29;20057;-80
2022/05/25 10:52:32;;;;;;;7.43;5.88;;;;;;;18.84;100.00;99548.50;4954094;29;20572;-80
2022/05/25 10:54:57;;;;;;;7.00;5.93;;;;;;;18.65;100.00;99554.41;4953860;29;20032;-80
2022/05/25 10:58:00;;;;;;;6.88;5.82;;;;;;;18.40;100.00;99561.66;4953816;29;20031;-80
2022/05/25 11:00:37;;;;;;;6.50;5.88;;;;;;;18.33;100.00;99551.72;4954125;29;20046;-80
2022/05/25 11:03:08;;;;;;;6.13;5.57;;;;;;;18.39;100.00;99554.72;4953627;29;20471;-79
2022/05/25 11:05:52;;;;;;;5.55;5.05;;;;;;;18.48;100.00;99544.41;4954669;28;20094;-80
2022/05/25 11:08:47;;;;;;;5.80;5.18;;;;;;;18.56;100.00;99553.34;4947558;29;20118;-80
2022/05/25 11:11:42;;;;;;;6.45;5.20;;;;;;;18.64;100.00;99537.75;4934533;29;20639;-80
2022/05/25 11:14:22;;;;;;;7.43;5.57;;;;;;;18.81;100.00;99540.84;5012225;28;20038;-80
2022/05/25 11:17:20;;;;;;;;;;;;;;;18.99;100.00;99544.56;5014664;28;20091;-80
2022/05/25 11:20:02;;;;;;;5.68;5.18;;;;;;;18.96;100.00;99550.09;4953372;29;19916;-80
2022/05/25 11:23:21;;;;;;;5.85;5.13;;;;;;;18.81;100.00;99539.03;4937457;29;20059;-80
2022/05/25 11:26:14;;;;;;;5.50;4.95;;;;;;;18.74;100.00;99555.47;4953498;29;20055;-80
2022/05/25 11:29:07;;;;;;;9.13;4.78;;;;;;;18.62;100.00;99559.91;4953339;29;20554;-80
2022/05/25 11:32:09;;;;;;;5.45;4.95;;;;;;;18.42;100.00;99558.91;4953541;29;20032;-80
2022/05/25 11:34:59;;;;;;;4.80;4.30;;;;;;;18.32;100.00;99558.81;4953391;29;20396;-79
2022/05/25 11:37:43;;;;;;;4.35;4.05;;;;;;;18.25;100.00;99562.06;4937045;29;20043;-80
2022/05/25 11:40:09;;;;;;;4.93;4.43;;;;;;;18.11;100.00;99566.63;4953205;29;20038;-80
2022/05/25 11:42:34;;;;;;;5.88;4.40;;;;;;;18.02;100.00;99566.53;4953124;29;20039;-80
2022/05/25 11:45:18;;;;;;;4.95;4.55;;;;;;;18.00;100.00;99564.00;4951774;28;20055;-80
2022/05/25 11:48:11;;;;;;;4.75;4.28;;;;;;;18.00;100.00;99560.53;4952886;28;20028;-80
2022/05/25 11:50:45;;;;;;;5.88;5.30;;;;;;;17.97;100.00;99566.88;4953066;29;20043;-80
2022/05/25 11:53:29;;;;;;;4.55;4.15;;;;;;;17.86;100.00;99575.59;4952965;29;20058;-79
2022/05/25 11:56:30;;;;;;;4.63;4.22;;;;;;;17.64;100.00;99565.88;4977243;28;20103;-80
2022/05/25 11:59:01;;;;;;;5.95;4.63;;;;;;;17.56;100.00;99570.88;5013550;28;20081;-80
2022/05/25 12:01:44;;;;;;;4.50;4.20;;;;;;;17.46;100.00;99578.66;5013585;28;20379;-80
2022/05/25 12:04:30;;;;;;;4.30;3.80;;;;;;;17.40;100.00;99576.50;4995873;28;20083;-80
2022/05/25 12:06:55;;;;;;;4.70;4.30;;;;;;;17.39;100.00;99577.44;5013031;28;20084;-80